Time;durP1;ratioP1;P1;durP2;ratioP2;P2;SDS_P1;SDS_P2;PMS_P1;PMS_P2;Temp;Humidity;BMP_temperature;BMP_pressure;BME280_temperature;BME280_humidity;BME280_pressure;Samples;Min_cycle;Max_cycle;Signal;HPM_P1;HPM_P2
2022/09/11 00:01:28;;;;;;;1.70;1.60;;;22.30;64.90;;;;;;5022251;28;43545;-58
2022/09/11 00:03:56;;;;;;;1.40;1.30;;;22.30;64.90;;;;;;5021958;28;44019;-58
2022/09/11 00:06:25;;;;;;;1.40;1.30;;;22.40;65.00;;;;;;5021681;28;43546;-58
2022/09/11 00:09:02;;;;;;;1.50;1.40;;;22.30;64.90;;;;;;5022409;28;43458;-58
2022/09/11 00:11:38;;;;;;;1.38;1.38;;;22.30;65.00;;;;;;5017426;28;43622;-58
2022/09/11 00:14:06;;;;;;;1.45;1.40;;;22.30;64.90;;;;;;5021171;28;44701;-58
2022/09/11 00:16:36;;;;;;;1.30;1.30;;;22.30;64.90;;;;;;5020859;28;43413;-58
2022/09/11 00:19:10;;;;;;;1.73;1.63;;;22.30;65.00;;;;;;5021549;28;43450;-58
2022/09/11 00:21:38;;;;;;;1.42;1.38;;;22.30;65.00;;;;;;5021551;28;43449;-58
2022/09/11 00:24:07;;;;;;;1.30;1.20;;;22.30;64.90;;;;;;5053162;28;45023;-58
2022/09/11 00:26:36;;;;;;;1.70;1.60;;;22.30;64.90;;;;;;5054102;28;43515;-58
2022/09/11 00:29:04;;;;;;;1.50;1.40;;;22.20;64.90;;;;;;5020148;28;43469;-58
2022/09/11 00:31:31;;;;;;;1.60;1.50;;;22.30;65.00;;;;;;5020792;28;43539;-58
2022/09/11 00:33:59;;;;;;;1.38;1.30;;;22.30;65.00;;;;;;5019270;28;43836;-58
2022/09/11 00:36:30;;;;;;;1.30;1.27;;;22.30;65.00;;;;;;5021566;28;43676;-58
2022/09/11 00:38:59;;;;;;;1.30;1.30;;;22.20;64.90;;;;;;5020636;28;43929;-58
2022/09/11 00:41:35;;;;;;;1.40;1.40;;;22.30;65.00;;;;;;5020652;28;43454;-58
2022/09/11 00:44:14;;;;;;;1.48;1.38;;;22.30;65.00;;;;;;5020091;28;44237;-58
2022/09/11 00:46:48;;;;;;;2.28;1.77;;;22.30;65.00;;;;;;5021067;28;43550;-58
2022/09/11 00:49:43;;;;;;;1.70;1.60;;;22.20;65.00;;;;;;5020891;28;43455;-58
2022/09/11 00:52:28;;;;;;;1.25;1.25;;;22.20;65.00;;;;;;5016600;28;43488;-57
2022/09/11 00:55:04;;;;;;;1.20;1.20;;;22.20;65.00;;;;;;5019110;28;43761;-58
2022/09/11 00:57:38;;;;;;;1.33;1.30;;;22.10;64.90;;;;;;5038012;28;43555;-58
2022/09/11 01:00:07;;;;;;;1.40;1.30;;;22.20;65.10;;;;;;5020157;28;43446;-58
2022/09/11 01:02:37;;;;;;;1.50;1.40;;;22.20;65.00;;;;;;5022208;28;43554;-58
2022/09/11 01:05:06;;;;;;;1.50;1.40;;;22.20;65.00;;;;;;5046631;28;44171;-58
2022/09/11 01:07:35;;;;;;;1.48;1.48;;;22.20;65.00;;;;;;5023154;28;43677;-58
2022/09/11 01:10:05;;;;;;;1.60;1.50;;;22.20;65.00;;;;;;5024010;28;43415;-58
2022/09/11 01:12:42;;;;;;;1.40;1.30;;;22.20;65.00;;;;;;5023100;28;43432;-57
2022/09/11 01:16:03;;;;;;;1.55;1.50;;;22.10;65.00;;;;;;5024509;28;43799;-58
2022/09/11 01:18:51;;;;;;;1.60;1.50;;;22.10;64.90;;;;;;5082247;28;43564;-58
2022/09/11 01:21:55;;;;;;;1.20;1.20;;;22.10;65.00;;;;;;5023320;28;43463;-58
2022/09/11 01:25:03;;;;;;;1.40;1.30;;;22.10;65.00;;;;;;5003569;28;43889;-58
2022/09/11 01:27:38;;;;;;;1.50;1.40;;;22.10;65.00;;;;;;5025679;28;44071;-58
2022/09/11 01:30:12;;;;;;;1.27;1.27;;;22.10;65.00;;;;;;5022472;28;43466;-58
2022/09/11 01:32:58;;;;;;;1.70;1.60;;;22.10;65.10;;;;;;5036140;28;43442;-58
2022/09/11 01:35:41;;;;;;;1.60;1.50;;;22.10;65.10;;;;;;5056995;28;43509;-58
2022/09/11 01:38:27;;;;;;;1.20;1.20;;;22.10;65.00;;;;;;5022020;28;43788;-58
2022/09/11 01:41:17;;;;;;;1.48;1.40;;;22.10;65.10;;;;;;5020387;28;43467;-58
2022/09/11 01:44:11;;;;;;;1.50;1.40;;;22.10;65.10;;;;;;5022718;28;43389;-58
2022/09/11 01:46:43;;;;;;;1.30;1.23;;;22.10;65.10;;;;;;5056314;28;43502;-58
2022/09/11 01:49:30;;;;;;;1.20;1.20;;;22.10;65.10;;;;;;5024085;28;43940;-57
2022/09/11 01:52:02;;;;;;;1.27;1.25;;;22.10;65.10;;;;;;5021591;28;43502;-58
2022/09/11 01:54:41;;;;;;;1.20;1.20;;;22.00;65.10;;;;;;5039104;28;43392;-58
2022/09/11 01:57:20;;;;;;;1.25;1.20;;;22.00;65.00;;;;;;5005849;28;43578;-58
2022/09/11 01:59:52;;;;;;;;;;;22.00;65.10;;;;;;5021650;28;44091;-58
2022/09/11 02:02:27;;;;;;;1.05;1.05;;;22.00;65.00;;;;;;5019359;28;43416;-58
2022/09/11 02:05:08;;;;;;;1.30;1.20;;;22.00;65.10;;;;;;5022233;28;43494;-58
2022/09/11 02:07:45;;;;;;;1.38;1.38;;;22.00;65.20;;;;;;5020837;28;43952;-58
2022/09/11 02:10:51;;;;;;;1.40;1.30;;;22.00;65.10;;;;;;5019096;28;44102;-58
2022/09/11 02:13:24;;;;;;;1.33;1.33;;;22.00;65.10;;;;;;5013634;28;43490;-58
2022/09/11 02:16:04;;;;;;;1.40;1.30;;;22.00;65.10;;;;;;5054135;28;43401;-58
2022/09/11 02:19:01;;;;;;;1.20;1.20;;;22.00;65.10;;;;;;5055861;28;43473;-58
2022/09/11 02:21:31;;;;;;;1.30;1.30;;;22.00;65.10;;;;;;5020768;28;44171;-58
2022/09/11 02:24:00;;;;;;;1.20;1.10;;;22.00;65.10;;;;;;5023018;28;43530;-58
2022/09/11 02:26:31;;;;;;;1.55;1.45;;;22.00;65.10;;;;;;5023017;28;43509;-58
2022/09/11 02:28:58;;;;;;;1.35;1.25;;;22.00;65.10;;;;;;5022451;28;43489;-58
2022/09/11 02:31:26;;;;;;;1.40;1.30;;;22.00;65.10;;;;;;5023174;28;43689;-58
2022/09/11 02:33:56;;;;;;;1.10;1.10;;;22.00;65.10;;;;;;5034543;28;43383;-58
2022/09/11 02:36:44;;;;;;;1.15;1.15;;;22.00;65.10;;;;;;5021755;28;43483;-58
2022/09/11 02:39:30;;;;;;;1.50;1.40;;;22.00;65.00;;;;;;5022102;28;43676;-58
2022/09/11 02:42:01;;;;;;;1.25;1.17;;;22.00;65.00;;;;;;5038016;28;44198;-58
2022/09/11 02:44:39;;;;;;;1.20;1.20;;;22.00;65.10;;;;;;5023204;28;43387;-58
2022/09/11 02:47:41;;;;;;;1.17;1.17;;;21.90;65.10;;;;;;5055429;28;43477;-58
2022/09/11 02:50:42;;;;;;;1.50;1.40;;;21.90;65.10;;;;;;5024774;28;43442;-58
2022/09/11 02:53:34;;;;;;;1.42;1.33;;;21.90;65.10;;;;;;5036208;28;43655;-58
2022/09/11 02:56:17;;;;;;;0.93;0.93;;;21.90;65.10;;;;;;5019211;28;43990;-58
2022/09/11 02:58:49;;;;;;;1.30;1.30;;;21.90;65.10;;;;;;5022869;28;43494;-58
2022/09/11 03:01:17;;;;;;;1.10;1.10;;;21.90;65.10;;;;;;5054705;28;43501;-58
2022/09/11 03:03:46;;;;;;;1.30;1.30;;;21.90;65.10;;;;;;5011381;28;44029;-58
2022/09/11 03:06:18;;;;;;;1.35;1.30;;;21.90;65.10;;;;;;5054208;28;43457;-58
2022/09/11 03:08:46;;;;;;;1.10;1.10;;;21.90;65.10;;;;;;5037760;28;43478;-58
2022/09/11 03:11:16;;;;;;;1.27;1.17;;;21.90;65.10;;;;;;5022695;28;43455;-58
2022/09/11 03:13:46;;;;;;;1.10;1.10;;;21.90;65.10;;;;;;5020961;28;43789;-58
2022/09/11 03:16:15;;;;;;;1.20;1.20;;;21.90;65.10;;;;;;5004641;28;43463;-58
2022/09/11 03:18:43;;;;;;;1.23;1.15;;;21.90;65.10;;;;;;5018369;28;43433;-58
2022/09/11 03:21:11;;;;;;;1.48;1.38;;;21.90;65.10;;;;;;5022420;28;43617;-58
2022/09/11 03:23:38;;;;;;;1.23;1.15;;;21.90;65.10;;;;;;5019798;28;43621;-58
2022/09/11 03:26:07;;;;;;;1.30;1.30;;;21.90;65.70;;;;;;5021091;28;43480;-58
2022/09/11 03:28:34;;;;;;;1.65;1.38;;;21.90;65.10;;;;;;5033242;28;43454;-58
2022/09/11 03:31:06;;;;;;;1.00;1.00;;;21.90;65.10;;;;;;5020912;28;43410;-58
2022/09/11 03:33:35;;;;;;;1.40;1.30;;;21.90;65.10;;;;;;5020986;28;43792;-57
2022/09/11 03:36:03;;;;;;;1.10;1.10;;;21.80;65.00;;;;;;5020642;28;43530;-58
2022/09/11 03:38:31;;;;;;;1.20;1.20;;;21.90;65.10;;;;;;5017247;28;43422;-58
2022/09/11 03:41:01;;;;;;;1.63;1.50;;;21.80;65.00;;;;;;5012634;28;43535;-58
2022/09/11 03:43:31;;;;;;;1.33;1.30;;;21.90;65.10;;;;;;5037542;28;43897;-58
2022/09/11 03:46:00;;;;;;;1.50;1.40;;;21.80;65.00;;;;;;5020514;28;43522;-58
2022/09/11 03:48:29;;;;;;;1.10;1.10;;;21.80;65.00;;;;;;5021131;28;43515;-58
2022/09/11 03:50:57;;;;;;;1.45;1.10;;;21.80;65.00;;;;;;5016284;28;43609;-58
2022/09/11 03:53:25;;;;;;;1.02;1.02;;;21.80;65.00;;;;;;5020893;28;44791;-58
2022/09/11 03:55:53;;;;;;;1.23;1.23;;;21.80;65.00;;;;;;5020268;28;43645;-58
2022/09/11 03:58:21;;;;;;;1.23;1.15;;;21.80;65.00;;;;;;5022750;28;43486;-58
2022/09/11 04:00:49;;;;;;;1.15;1.15;;;21.80;65.00;;;;;;5017250;28;43436;-58
2022/09/11 04:03:16;;;;;;;1.23;1.13;;;21.80;65.00;;;;;;5019158;28;44057;-58
2022/09/11 04:05:56;;;;;;;1.02;1.02;;;21.80;65.00;;;;;;5019785;28;43486;-58
2022/09/11 04:08:24;;;;;;;1.20;1.20;;;21.80;65.00;;;;;;5022440;28;43533;-58
2022/09/11 04:10:56;;;;;;;1.10;1.10;;;21.80;65.00;;;;;;5003808;28;43534;-56
2022/09/11 04:13:28;;;;;;;1.20;1.10;;;21.80;65.00;;;;;;5021598;28;43942;-58
2022/09/11 04:16:01;;;;;;;1.20;1.20;;;21.80;65.00;;;;;;5020562;28;43465;-58
2022/09/11 04:18:33;;;;;;;1.30;1.20;;;21.80;65.00;;;;;;5020287;28;43462;-58
2022/09/11 04:21:09;;;;;;;1.02;1.02;;;21.80;65.00;;;;;;5019898;28;43548;-57
2022/09/11 04:23:39;;;;;;;1.00;1.00;;;21.80;65.00;;;;;;5036718;28;46051;-58
2022/09/11 04:26:15;;;;;;;1.10;1.10;;;21.80;65.00;;;;;;5019833;28;43375;-58
2022/09/11 04:28:45;;;;;;;1.20;1.20;;;21.80;65.00;;;;;;5020449;28;44020;-57
2022/09/11 04:31:15;;;;;;;1.05;1.05;;;21.80;65.00;;;;;;5020594;28;43541;-58
2022/09/11 04:33:44;;;;;;;1.48;1.30;;;21.70;65.00;;;;;;5032675;28;43958;-58
2022/09/11 04:36:16;;;;;;;1.20;1.20;;;21.80;65.00;;;;;;5010427;28;43686;-58
2022/09/11 04:38:45;;;;;;;1.15;1.15;;;21.80;65.00;;;;;;5022113;28;43466;-58
2022/09/11 04:41:15;;;;;;;1.35;1.33;;;21.70;65.00;;;;;;5024738;28;43557;-58
2022/09/11 04:43:43;;;;;;;1.05;1.00;;;21.80;65.00;;;;;;5019255;28;44936;-58
2022/09/11 04:46:15;;;;;;;0.90;0.90;;;21.70;65.00;;;;;;5006931;28;44726;-58
2022/09/11 04:48:54;;;;;;;1.05;1.05;;;21.70;65.00;;;;;;5006974;28;43458;-58
2022/09/11 04:51:34;;;;;;;0.90;0.90;;;21.70;65.00;;;;;;5037351;28;43460;-58
2022/09/11 04:54:02;;;;;;;1.00;1.00;;;21.70;65.00;;;;;;5024136;28;44890;-58
2022/09/11 04:56:38;;;;;;;0.90;0.90;;;21.70;65.00;;;;;;5039550;28;43545;-58
2022/09/11 04:59:26;;;;;;;1.40;1.30;;;21.70;65.00;;;;;;5021184;28;43433;-58
2022/09/11 05:02:02;;;;;;;1.33;1.23;;;21.70;65.00;;;;;;5022605;28;44037;-57
2022/09/11 05:04:30;;;;;;;1.10;1.10;;;21.70;65.00;;;;;;5023074;28;44173;-58
2022/09/11 05:07:00;;;;;;;1.27;1.17;;;21.70;65.10;;;;;;5031469;28;44023;-58
2022/09/11 05:09:28;;;;;;;1.08;1.08;;;21.70;65.00;;;;;;5022846;28;43430;-58
2022/09/11 05:11:57;;;;;;;1.10;1.10;;;21.70;65.00;;;;;;5006225;28;43495;-58
2022/09/11 05:14:31;;;;;;;1.45;1.20;;;21.70;65.00;;;;;;5023079;28;43703;-58
2022/09/11 05:17:01;;;;;;;1.23;1.23;;;21.70;65.00;;;;;;5022996;28;43477;-58
2022/09/11 05:19:30;;;;;;;1.20;1.20;;;21.70;65.10;;;;;;5023411;28;43417;-58
2022/09/11 05:21:58;;;;;;;1.10;1.10;;;21.70;65.00;;;;;;5006401;28;43613;-58
2022/09/11 05:24:26;;;;;;;1.00;1.00;;;21.70;65.00;;;;;;5022954;28;45454;-58
2022/09/11 05:26:56;;;;;;;1.05;1.05;;;21.70;65.00;;;;;;5019623;28;43529;-58
2022/09/11 05:29:28;;;;;;;1.20;1.20;;;21.70;65.00;;;;;;5021450;28;43439;-58
2022/09/11 05:32:07;;;;;;;1.20;1.20;;;21.70;65.00;;;;;;5022557;28;43484;-57
2022/09/11 05:34:35;;;;;;;1.25;1.15;;;21.70;65.10;;;;;;5023032;28;43799;-58
2022/09/11 05:37:03;;;;;;;1.35;1.25;;;21.70;65.10;;;;;;5019834;28;43592;-58
2022/09/11 05:39:35;;;;;;;1.00;1.00;;;21.70;65.00;;;;;;5023315;28;43831;-58
2022/09/11 05:42:04;;;;;;;1.40;1.30;;;21.60;65.00;;;;;;5022175;28;43467;-58
2022/09/11 05:44:35;;;;;;;1.10;1.10;;;21.70;65.10;;;;;;5019223;28;44958;-58
2022/09/11 05:47:05;;;;;;;1.00;1.00;;;21.60;65.10;;;;;;5019767;28;44043;-57
2022/09/11 05:49:32;;;;;;;1.48;1.38;;;21.70;65.10;;;;;;5021331;28;43410;-57
2022/09/11 05:52:01;;;;;;;0.82;0.82;;;21.60;65.00;;;;;;5038129;28;43568;-58
2022/09/11 05:54:31;;;;;;;1.17;1.17;;;21.70;65.10;;;;;;5021559;28;44047;-58
2022/09/11 05:57:02;;;;;;;0.88;0.88;;;21.60;65.10;;;;;;5020821;28;43494;-58
2022/09/11 05:59:35;;;;;;;1.17;1.17;;;21.60;65.10;;;;;;5024025;28;43415;-58
2022/09/11 06:02:03;;;;;;;1.20;1.20;;;21.60;65.10;;;;;;5005967;28;43654;-58
2022/09/11 06:04:43;;;;;;;1.17;1.17;;;21.70;65.20;;;;;;5021477;28;44698;-58
2022/09/11 06:07:12;;;;;;;1.17;1.17;;;21.60;65.20;;;;;;5022626;28;44091;-58
2022/09/11 06:09:41;;;;;;;1.23;1.10;;;21.60;65.20;;;;;;5022192;28;43506;-58
2022/09/11 06:12:11;;;;;;;1.10;1.10;;;21.60;65.10;;;;;;5022978;28;43546;-58
2022/09/11 06:14:42;;;;;;;1.10;1.10;;;21.60;65.20;;;;;;5005229;28;44169;-59
2022/09/11 06:17:11;;;;;;;1.30;1.30;;;21.60;65.10;;;;;;5022234;28;43545;-58
2022/09/11 06:19:39;;;;;;;1.05;1.05;;;21.60;65.20;;;;;;5021897;28;43479;-58
2022/09/11 06:22:07;;;;;;;1.10;1.10;;;21.60;65.20;;;;;;5019592;28;43455;-58
2022/09/11 06:24:39;;;;;;;1.27;1.27;;;21.60;65.20;;;;;;5021841;28;44023;-59
2022/09/11 06:27:08;;;;;;;1.10;1.10;;;21.60;65.20;;;;;;5023152;28;43419;-58
2022/09/11 06:29:39;;;;;;;1.00;1.00;;;21.60;65.20;;;;;;5021599;28;43487;-58
2022/09/11 06:32:07;;;;;;;1.00;1.00;;;21.60;65.20;;;;;;5003352;28;43467;-58
2022/09/11 06:34:37;;;;;;;1.20;1.20;;;21.60;65.20;;;;;;5021980;28;43811;-58
2022/09/11 06:37:09;;;;;;;0.98;0.98;;;21.60;65.20;;;;;;5021610;28;44489;-58
2022/09/11 06:39:37;;;;;;;1.17;1.17;;;21.60;65.30;;;;;;5005172;28;43456;-57
2022/09/11 06:42:06;;;;;;;1.00;1.00;;;21.60;65.40;;;;;;5021237;28;43522;-57
2022/09/11 06:44:36;;;;;;;2.83;1.48;;;21.60;65.40;;;;;;5021981;28;43744;-57
2022/09/11 06:47:05;;;;;;;1.25;1.15;;;21.60;65.40;;;;;;5021252;28;43530;-57
2022/09/11 06:49:34;;;;;;;1.17;1.10;;;21.60;65.40;;;;;;5020826;28;43378;-58
2022/09/11 06:52:21;;;;;;;1.20;1.20;;;21.60;65.40;;;;;;5021849;28;43582;-58
2022/09/11 06:55:01;;;;;;;1.15;1.15;;;21.60;65.30;;;;;;5018404;28;43878;-58
2022/09/11 06:57:29;;;;;;;1.20;1.17;;;21.60;65.40;;;;;;5021381;28;43444;-58
2022/09/11 06:59:57;;;;;;;1.10;1.10;;;21.60;65.40;;;;;;5021519;28;43455;-57
2022/09/11 07:02:25;;;;;;;0.98;0.98;;;21.60;65.30;;;;;;5021482;28;43478;-58
2022/09/11 07:04:54;;;;;;;1.05;1.05;;;21.60;65.40;;;;;;5038154;28;44173;-58
2022/09/11 07:07:24;;;;;;;0.85;0.85;;;21.60;65.30;;;;;;5021835;28;44055;-58
2022/09/11 07:09:52;;;;;;;1.00;1.00;;;21.60;65.30;;;;;;5021355;28;43390;-58
2022/09/11 07:12:22;;;;;;;0.90;0.90;;;21.60;65.40;;;;;;5021419;28;43565;-58
2022/09/11 07:14:50;;;;;;;1.25;0.88;;;21.60;65.40;;;;;;5020497;28;43867;-58
2022/09/11 07:17:18;;;;;;;1.23;0.98;;;21.60;65.40;;;;;;5021603;28;43578;-58
2022/09/11 07:19:49;;;;;;;1.15;1.08;;;21.60;65.40;;;;;;5021324;28;43482;-58
2022/09/11 07:22:18;;;;;;;0.95;0.95;;;21.70;65.50;;;;;;5020884;28;43455;-58
2022/09/11 07:24:47;;;;;;;;;;;21.60;65.30;;;;;;5016945;28;43669;-58
2022/09/11 07:27:15;;;;;;;1.17;1.10;;;21.60;65.30;;;;;;5020041;28;43498;-58
2022/09/11 07:29:43;;;;;;;1.08;1.08;;;21.60;65.40;;;;;;5004132;28;43401;-58
2022/09/11 07:32:10;;;;;;;1.10;1.00;;;21.60;65.40;;;;;;5004926;28;43586;-58
2022/09/11 07:34:39;;;;;;;1.00;1.00;;;21.60;65.30;;;;;;5017490;28;45015;-58
2022/09/11 07:37:09;;;;;;;1.35;1.17;;;21.60;65.40;;;;;;5013099;28;43994;-57
2022/09/11 07:39:38;;;;;;;1.20;1.10;;;21.60;65.40;;;;;;5004903;28;43385;-58
2022/09/11 07:42:11;;;;;;;0.95;0.95;;;21.60;65.30;;;;;;5020309;28;43450;-58
2022/09/11 07:44:40;;;;;;;1.10;1.10;;;21.60;65.30;;;;;;5004246;28;45936;-58
2022/09/11 07:47:08;;;;;;;1.00;1.00;;;21.60;65.20;;;;;;5004489;28;45157;-57
2022/09/11 07:49:41;;;;;;;1.08;0.90;;;21.60;65.20;;;;;;5054644;28;43495;-58
2022/09/11 07:52:09;;;;;;;1.08;1.08;;;21.60;65.20;;;;;;4994573;28;43630;-58
2022/09/11 07:54:50;;;;;;;0.90;0.90;;;21.60;65.20;;;;;;5018437;28;43912;-58
2022/09/11 07:57:20;;;;;;;1.00;1.00;;;21.60;65.20;;;;;;5019291;28;43516;-58
2022/09/11 07:59:50;;;;;;;0.80;0.80;;;21.60;65.20;;;;;;5021427;28;43477;-58
2022/09/11 08:02:18;;;;;;;1.00;0.90;;;21.70;65.20;;;;;;5037020;28;43426;-58
2022/09/11 08:04:47;;;;;;;1.15;1.15;;;21.70;65.30;;;;;;4994948;28;44172;-58
2022/09/11 08:07:15;;;;;;;0.90;0.90;;;21.60;65.20;;;;;;5022334;28;43466;-57
2022/09/11 08:09:43;;;;;;;0.85;0.85;;;21.70;65.20;;;;;;5019719;28;43628;-57
2022/09/11 08:12:11;;;;;;;0.90;0.90;;;21.70;65.20;;;;;;5020462;28;43431;-58
2022/09/11 08:14:39;;;;;;;1.23;1.13;;;21.70;65.20;;;;;;5020633;28;44222;-58
2022/09/11 08:17:17;;;;;;;0.98;0.98;;;21.70;65.20;;;;;;5004928;28;43479;-58
2022/09/11 08:19:46;;;;;;;0.90;0.90;;;21.70;65.10;;;;;;5016695;28;43405;-57
2022/09/11 08:22:13;;;;;;;0.90;0.90;;;21.70;65.10;;;;;;5017365;28;43829;-58
2022/09/11 08:24:44;;;;;;;0.93;0.93;;;21.70;65.20;;;;;;5020021;28;44784;-58
2022/09/11 08:27:15;;;;;;;1.10;1.10;;;21.70;65.10;;;;;;5003844;28;44013;-58
2022/09/11 08:29:44;;;;;;;0.90;0.90;;;21.80;65.10;;;;;;5021776;28;43373;-57
2022/09/11 08:32:12;;;;;;;1.25;1.00;;;21.80;65.20;;;;;;5033603;28;43707;-58
2022/09/11 08:34:41;;;;;;;0.90;0.90;;;21.80;65.20;;;;;;5014477;28;44049;-57
2022/09/11 08:37:08;;;;;;;1.20;1.10;;;21.80;65.20;;;;;;5020179;28;43507;-57
2022/09/11 08:39:37;;;;;;;0.90;0.90;;;21.80;65.40;;;;;;5002260;28;43440;-58
2022/09/11 08:42:15;;;;;;;1.08;1.02;;;21.80;65.30;;;;;;5017369;28;43695;-58
2022/09/11 08:44:57;;;;;;;1.08;0.98;;;21.90;65.60;;;;;;5018890;28;44715;-58
2022/09/11 08:47:48;;;;;;;1.48;1.17;;;21.90;65.60;;;;;;5035801;28;43473;-58
2022/09/11 08:50:23;;;;;;;1.10;1.00;;;21.90;65.60;;;;;;5035294;28;43515;-58
2022/09/11 08:52:53;;;;;;;1.38;1.10;;;21.90;65.50;;;;;;5001490;28;43638;-58
2022/09/11 08:55:35;;;;;;;1.00;1.00;;;21.90;65.40;;;;;;5020368;28;44029;-58
2022/09/11 08:58:10;;;;;;;;;;;21.90;65.50;;;;;;5020490;28;44079;-58
2022/09/11 09:00:49;;;;;;;1.45;0.95;;;21.90;65.60;;;;;;5003470;28;43458;-58
2022/09/11 09:03:29;;;;;;;1.17;1.17;;;21.90;65.90;;;;;;5019261;28;43424;-58
2022/09/11 09:06:27;;;;;;;1.40;1.30;;;21.90;65.60;;;;;;5014747;28;44119;-58
2022/09/11 09:09:02;;;;;;;0.90;0.90;;;21.90;65.40;;;;;;5034921;28;43515;-58
2022/09/11 09:12:21;;;;;;;1.10;1.00;;;21.90;65.40;;;;;;5019336;28;44216;-58
2022/09/11 09:15:00;;;;;;;1.40;1.10;;;21.90;65.40;;;;;;4979500;28;43457;-58
2022/09/11 09:17:40;;;;;;;1.02;0.90;;;22.00;65.50;;;;;;4978940;28;44062;-58
2022/09/11 09:20:22;;;;;;;1.92;1.05;;;22.00;65.70;;;;;;5007185;28;43483;-58
2022/09/11 09:23:02;;;;;;;1.65;1.02;;;22.00;65.60;;;;;;5002438;28;43495;-58
2022/09/11 09:25:35;;;;;;;1.23;1.13;;;22.00;65.70;;;;;;5021154;28;43395;-58
2022/09/11 09:28:20;;;;;;;1.00;1.00;;;22.00;65.70;;;;;;5020510;28;44142;-58
2022/09/11 09:31:05;;;;;;;1.65;1.08;;;22.00;65.50;;;;;;5021826;28;43455;-58
2022/09/11 09:33:42;;;;;;;2.00;1.30;;;22.00;65.80;;;;;;5035332;28;43472;-58
2022/09/11 09:36:13;;;;;;;1.15;1.00;;;22.00;65.60;;;;;;5021087;28;43498;-58
2022/09/11 09:38:41;;;;;;;1.40;1.10;;;22.00;65.70;;;;;;5018941;28;43886;-58
2022/09/11 09:41:48;;;;;;;0.90;0.88;;;22.10;65.70;;;;;;5021750;28;43465;-58
2022/09/11 09:44:37;;;;;;;1.40;1.30;;;22.00;65.40;;;;;;5020025;28;43494;-58
2022/09/11 09:47:08;;;;;;;0.90;0.90;;;22.10;65.50;;;;;;5019173;28;43504;-58
2022/09/11 09:49:36;;;;;;;1.30;1.20;;;22.10;65.40;;;;;;5018777;28;44052;-58
2022/09/11 09:52:23;;;;;;;1.35;1.13;;;22.20;65.50;;;;;;5054146;28;43515;-58
2022/09/11 09:55:04;;;;;;;1.85;1.10;;;22.10;65.70;;;;;;5021386;28;43493;-58
2022/09/11 09:57:35;;;;;;;1.17;1.08;;;22.20;65.60;;;;;;5021932;28;43498;-58
2022/09/11 10:00:14;;;;;;;1.00;0.93;;;22.20;66.10;;;;;;5019870;28;43556;-58
2022/09/11 10:02:44;;;;;;;1.30;1.15;;;22.20;65.50;;;;;;5022834;28;43542;-58
2022/09/11 10:05:28;;;;;;;1.47;1.33;;;22.20;65.30;;;;;;5021346;28;44065;-58
2022/09/11 10:08:02;;;;;;;1.83;1.10;;;22.20;65.30;;;;;;5022080;28;43557;-58
2022/09/11 10:10:38;;;;;;;1.80;1.00;;;22.20;65.40;;;;;;5022160;28;43673;-59
2022/09/11 10:13:21;;;;;;;1.38;1.05;;;22.30;65.60;;;;;;5021172;28;44126;-58
2022/09/11 10:15:49;;;;;;;1.20;1.00;;;22.30;65.50;;;;;;5019630;28;43515;-58
2022/09/11 10:18:33;;;;;;;2.40;1.00;;;22.30;65.40;;;;;;5021468;28;43486;-58
2022/09/11 10:21:13;;;;;;;2.05;1.00;;;22.30;65.40;;;;;;5019130;28;43625;-59
2022/09/11 10:23:57;;;;;;;2.25;1.30;;;22.30;65.30;;;;;;5022676;28;43460;-58
2022/09/11 10:26:36;;;;;;;2.33;1.30;;;22.30;65.50;;;;;;5051968;28;43521;-58
2022/09/11 10:29:26;;;;;;;1.83;1.38;;;22.30;65.50;;;;;;5022127;28;43512;-58
2022/09/11 10:31:54;;;;;;;1.45;1.10;;;22.30;65.50;;;;;;5047806;28;43928;-58
2022/09/11 10:34:25;;;;;;;1.23;1.13;;;22.30;65.40;;;;;;5021051;28;43434;-58
2022/09/11 10:37:06;;;;;;;0.90;0.90;;;22.30;65.40;;;;;;5019742;28;43481;-58
2022/09/11 10:39:35;;;;;;;1.00;1.00;;;22.30;65.40;;;;;;5037829;28;43602;-58
2022/09/11 10:42:15;;;;;;;1.63;1.02;;;22.30;65.40;;;;;;5021726;28;44028;-58
2022/09/11 10:44:46;;;;;;;1.27;1.05;;;22.40;65.50;;;;;;5018823;28;43473;-59
2022/09/11 10:47:13;;;;;;;1.10;1.10;;;22.30;65.50;;;;;;5038118;28;43561;-58
2022/09/11 10:49:41;;;;;;;1.60;1.02;;;22.30;66.20;;;;;;5022354;28;43410;-58
2022/09/11 10:52:08;;;;;;;1.20;1.10;;;22.40;65.50;;;;;;5020130;28;43929;-58
2022/09/11 10:54:54;;;;;;;1.45;1.00;;;22.40;65.60;;;;;;5021900;28;43707;-59
2022/09/11 10:57:28;;;;;;;1.08;0.90;;;22.40;65.60;;;;;;5022362;28;43541;-58
2022/09/11 11:00:11;;;;;;;1.20;1.10;;;22.40;65.70;;;;;;5015285;28;43499;-58
2022/09/11 11:02:44;;;;;;;1.30;1.20;;;22.40;65.50;;;;;;5022625;28;43802;-58
2022/09/11 11:05:25;;;;;;;1.15;1.05;;;22.40;65.40;;;;;;5054746;28;43550;-58
2022/09/11 11:08:11;;;;;;;1.23;1.13;;;22.40;65.40;;;;;;5022433;28;43538;-58
2022/09/11 11:11:03;;;;;;;1.35;1.20;;;22.40;65.40;;;;;;5022982;28;43382;-58
2022/09/11 11:13:45;;;;;;;1.67;1.17;;;22.50;65.20;;;;;;5021119;28;44027;-58
2022/09/11 11:16:21;;;;;;;1.10;1.00;;;22.50;65.30;;;;;;5021206;28;43555;-58
2022/09/11 11:18:55;;;;;;;1.20;1.13;;;22.50;65.20;;;;;;5050074;28;43557;-58
2022/09/11 11:21:31;;;;;;;1.23;1.13;;;22.50;65.20;;;;;;5021332;28;43513;-58
2022/09/11 11:24:20;;;;;;;1.67;1.00;;;22.50;65.10;;;;;;5022311;28;43801;-58
2022/09/11 11:27:24;;;;;;;1.40;1.00;;;22.50;65.00;;;;;;5015292;28;43569;-58
2022/09/11 11:29:59;;;;;;;2.50;1.15;;;22.50;65.00;;;;;;5020935;28;43516;-58
2022/09/11 11:32:51;;;;;;;2.28;1.10;;;22.50;65.10;;;;;;5043369;28;43498;-58
2022/09/11 11:35:28;;;;;;;1.60;1.00;;;22.50;65.10;;;;;;5020325;28;44933;-58
2022/09/11 11:38:06;;;;;;;0.98;0.98;;;22.50;65.20;;;;;;5022288;28;43483;-59
2022/09/11 11:40:46;;;;;;;1.38;1.15;;;22.50;65.90;;;;;;5019562;28;43425;-58
2022/09/11 11:43:18;;;;;;;0.88;0.88;;;22.50;65.30;;;;;;5021783;28;43497;-58
2022/09/11 11:45:55;;;;;;;1.45;1.33;;;22.50;65.30;;;;;;5021772;28;44060;-58
2022/09/11 11:48:31;;;;;;;0.95;0.80;;;22.50;65.40;;;;;;5022372;28;43428;-58
2022/09/11 11:51:03;;;;;;;1.30;1.20;;;22.50;65.40;;;;;;5021690;28;43522;-58
2022/09/11 11:53:47;;;;;;;1.00;1.00;;;22.50;65.30;;;;;;5020540;28;43466;-58
2022/09/11 11:56:34;;;;;;;1.05;0.95;;;22.50;65.40;;;;;;5036743;28;44677;-58
2022/09/11 11:59:16;;;;;;;1.10;1.00;;;22.50;65.40;;;;;;5023584;28;43504;-58
2022/09/11 12:01:57;;;;;;;1.25;1.00;;;22.50;65.50;;;;;;5020958;28;43423;-58
2022/09/11 12:04:37;;;;;;;1.25;0.80;;;22.50;65.50;;;;;;5021811;28;43455;-58
2022/09/11 12:07:11;;;;;;;0.90;0.90;;;22.50;65.40;;;;;;5022099;28;43784;-58
2022/09/11 12:09:44;;;;;;;1.10;1.10;;;22.50;65.40;;;;;;5021037;28;43377;-58
2022/09/11 12:12:12;;;;;;;0.90;0.90;;;22.50;65.30;;;;;;5020462;28;43470;-58
2022/09/11 12:15:04;;;;;;;1.73;1.00;;;22.60;65.40;;;;;;5021639;28;43498;-58
2022/09/11 12:17:35;;;;;;;0.70;0.70;;;22.60;65.20;;;;;;5020709;28;44926;-58
2022/09/11 12:20:09;;;;;;;1.10;1.00;;;22.60;65.20;;;;;;5020507;28;43490;-58
2022/09/11 12:22:48;;;;;;;1.67;1.10;;;22.60;65.20;;;;;;5053999;28;43433;-58
2022/09/11 12:25:19;;;;;;;1.08;0.93;;;22.70;65.10;;;;;;5020687;28;43511;-59
2022/09/11 12:27:50;;;;;;;1.13;1.00;;;22.70;65.00;;;;;;5020629;28;44457;-59
2022/09/11 12:30:17;;;;;;;0.88;0.88;;;22.70;65.00;;;;;;5021435;28;43706;-58
2022/09/11 12:32:56;;;;;;;1.02;0.93;;;22.80;65.00;;;;;;5003462;28;43417;-58
2022/09/11 12:35:33;;;;;;;1.23;1.13;;;22.80;65.00;;;;;;5035654;28;43545;-58
2022/09/11 12:38:12;;;;;;;1.52;1.00;;;22.80;64.80;;;;;;5021392;28;43786;-58
2022/09/11 12:40:56;;;;;;;1.13;0.80;;;22.80;64.80;;;;;;5020424;28;43911;-58
2022/09/11 12:43:36;;;;;;;0.93;0.80;;;22.80;64.90;;;;;;5019061;28;43442;-58
2022/09/11 12:46:33;;;;;;;1.17;1.17;;;22.80;64.60;;;;;;5020411;28;43897;-58
2022/09/11 12:49:09;;;;;;;1.08;1.00;;;22.80;64.60;;;;;;5021129;28;43781;-58
2022/09/11 12:51:55;;;;;;;0.98;0.95;;;22.90;64.90;;;;;;5053537;28;43395;-58
2022/09/11 12:54:38;;;;;;;0.75;0.75;;;22.90;64.80;;;;;;5020409;28;43468;-59
2022/09/11 12:57:11;;;;;;;1.00;1.00;;;22.90;64.70;;;;;;5020784;28;43507;-58
2022/09/11 12:59:42;;;;;;;1.02;0.80;;;23.00;64.70;;;;;;5024661;28;43969;-59
2022/09/11 13:02:35;;;;;;;1.23;0.90;;;23.00;64.60;;;;;;5024877;28;43427;-59
2022/09/11 13:05:23;;;;;;;1.52;1.10;;;23.00;64.50;;;;;;5014077;28;43525;-58
2022/09/11 13:07:58;;;;;;;2.17;1.10;;;23.00;64.60;;;;;;5023062;28;43527;-58
2022/09/11 13:10:32;;;;;;;1.10;1.00;;;23.10;64.60;;;;;;5024854;28;43796;-58
2022/09/11 13:13:25;;;;;;;1.08;1.08;;;23.10;64.50;;;;;;5006270;28;43489;-58
2022/09/11 13:15:56;;;;;;;1.80;1.10;;;23.10;64.50;;;;;;5022400;28;43528;-58
2022/09/11 13:18:30;;;;;;;1.05;0.93;;;23.10;64.50;;;;;;5022880;28;43572;-58
2022/09/11 13:20:59;;;;;;;1.25;1.10;;;23.20;64.40;;;;;;5021351;28;43707;-58
2022/09/11 13:23:27;;;;;;;1.13;0.93;;;23.20;64.40;;;;;;5023174;28;44038;-59
2022/09/11 13:25:56;;;;;;;1.30;1.10;;;23.20;64.30;;;;;;5024306;28;43455;-58
2022/09/11 13:28:27;;;;;;;1.60;1.25;;;23.20;64.30;;;;;;5024151;28;43468;-58